createdAt,value
2023-02-15T00:00:38.533Z,1036.5
2023-02-15T00:06:24.721Z,1036.5
2023-02-15T00:11:47.443Z,1036.5
2023-02-15T00:17:23.316Z,1036.5
2023-02-15T00:23:05.034Z,1036.5
2023-02-15T00:28:12.888Z,1036.5
2023-02-15T00:34:04.045Z,1036.5
2023-02-15T00:39:32.668Z,1036.5
2023-02-15T00:45:18.987Z,1036.6
2023-02-15T00:50:36.578Z,1036.6
2023-02-15T00:56:12.726Z,1036.7
2023-02-15T01:01:55.638Z,1036.7
2023-02-15T01:07:04.618Z,1036.6
2023-02-15T01:12:48.636Z,1036.5
2023-02-15T01:18:33.579Z,1036.7
2023-02-15T01:23:46.027Z,1036.7
2023-02-15T01:29:24.290Z,1036.8
2023-02-15T01:35:08.088Z,1036.7
2023-02-15T01:40:20.994Z,1036.5
2023-02-15T01:45:54.541Z,1036.6
2023-02-15T01:51:45.935Z,1036.5
2023-02-15T01:57:15.386Z,1036.5
2023-02-15T02:02:28.914Z,1036.6
2023-02-15T02:08:10.617Z,1036.7
2023-02-15T02:13:48.369Z,1036.7
2023-02-15T02:19:14.261Z,1036.5
2023-02-15T02:24:44.590Z,1036.4
2023-02-15T02:30:11.215Z,1036.5
2023-02-15T02:36:01.239Z,1036.5
2023-02-15T02:41:23.570Z,1036.5
2023-02-15T02:47:01.348Z,1036.6
2023-02-15T02:52:23.219Z,1036.5
2023-02-15T02:58:11.338Z,1036.4
2023-02-15T03:03:45.900Z,1036.4
2023-02-15T03:08:59.639Z,1036.4
2023-02-15T03:14:30.510Z,1036.3
2023-02-15T03:20:21.484Z,1036.4
2023-02-15T03:25:50.647Z,1036.4
2023-02-15T03:31:23.143Z,1036.4
2023-02-15T03:37:08.193Z,1036.5
2023-02-15T03:42:29.191Z,1036.5
2023-02-15T03:48:11.385Z,1036.5
2023-02-15T03:53:28.103Z,1036.6
2023-02-15T03:58:55.349Z,1036.6
2023-02-15T04:04:33.042Z,1036.5
2023-02-15T04:10:05.501Z,1036.6
2023-02-15T04:15:53.663Z,1036.6
2023-02-15T04:21:24.997Z,1036.7
2023-02-15T04:26:38.302Z,1036.7
2023-02-15T04:32:16.447Z,1036.7
2023-02-15T04:37:53.778Z,1036.7
2023-02-15T04:43:35.688Z,1036.6
2023-02-15T04:48:51.513Z,1036.6
2023-02-15T04:54:16.404Z,1036.6
2023-02-15T04:59:48.671Z,1036.5
2023-02-15T05:05:21.132Z,1036.6
2023-02-15T05:11:07.099Z,1036.5
2023-02-15T05:16:36.521Z,1036.7
2023-02-15T05:22:10.391Z,1036.6
2023-02-15T05:27:37.561Z,1036.6
2023-02-15T05:33:10.978Z,1036.6
2023-02-15T05:38:47.868Z,1036.7
2023-02-15T05:44:16.219Z,1036.7
2023-02-15T05:49:48.963Z,1036.8
2023-02-15T05:55:13.510Z,1036.8
2023-02-15T06:01:11.934Z,1036.8
2023-02-15T06:06:34.442Z,1036.8
2023-02-15T06:11:58.920Z,1036.9
2023-02-15T06:17:37.188Z,1036.9
2023-02-15T06:23:16.855Z,1036.9
2023-02-15T06:28:43.190Z,1037
2023-02-15T06:34:09.340Z,1037.1
2023-02-15T06:39:41.371Z,1037.2
2023-02-15T06:45:23.692Z,1037
2023-02-15T06:51:03.335Z,1037.1
2023-02-15T06:56:13.439Z,1037
2023-02-15T07:02:12.703Z,1037
2023-02-15T07:07:35.146Z,1037.1
2023-02-15T07:13:02.088Z,1037
2023-02-15T07:18:24.776Z,1037.1
2023-02-15T07:24:09.821Z,1037.1
2023-02-15T07:29:54.985Z,1037.1
2023-02-15T07:35:19.351Z,1037.1
2023-02-15T07:41:00.358Z,1037.2
2023-02-15T07:46:18.027Z,1037.1
2023-02-15T07:52:00.410Z,1037.1
2023-02-15T07:57:31.921Z,1037
2023-02-15T08:03:01.635Z,1036.9
2023-02-15T08:08:19.196Z,1036.9
2023-02-15T08:13:52.163Z,1036.9
2023-02-15T08:19:23.842Z,1036.8
2023-02-15T08:25:18.126Z,1036.8
2023-02-15T08:30:36.198Z,1036.8
2023-02-15T08:35:59.656Z,1036.7
2023-02-15T08:41:50.959Z,1036.6
2023-02-15T08:47:32.952Z,1036.6
2023-02-15T08:52:43.290Z,1036.5
2023-02-15T08:58:39.169Z,1036.6
2023-02-15T09:04:06.826Z,1036.4
2023-02-15T09:09:42.764Z,1036.5
2023-02-15T09:15:10.896Z,1036.4
2023-02-15T09:20:47.387Z,1036.4
2023-02-15T09:26:21.890Z,1036.2
2023-02-15T09:31:56.873Z,1036.2
2023-02-15T09:37:29.942Z,1036.2
2023-02-15T09:42:36.987Z,1036.1
2023-02-15T09:48:12.604Z,1036.1
2023-02-15T09:53:59.319Z,1036.2
2023-02-15T09:59:26.059Z,1036
2023-02-15T10:05:08.165Z,1036
2023-02-15T10:10:25.557Z,1035.9
2023-02-15T10:15:56.889Z,1035.9
2023-02-15T10:21:52.204Z,1035.8
2023-02-15T10:27:10.426Z,1035.6
2023-02-15T10:32:39.348Z,1035.5
2023-02-15T10:38:33.385Z,1035.4
2023-02-15T10:43:45.821Z,1035.2
2023-02-15T10:49:15.243Z,1035.1
2023-02-15T10:54:51.096Z,1035
2023-02-15T11:00:20.879Z,1035
2023-02-15T11:06:02.289Z,1034.8
2023-02-15T11:11:29.586Z,1034.7
2023-02-15T11:17:03.781Z,1034.5
2023-02-15T11:22:53.180Z,1034.3
2023-02-15T11:28:25.934Z,1034.2
2023-02-15T11:33:40.190Z,1034.2
2023-02-15T11:39:14.638Z,1034.1
2023-02-15T11:45:12.651Z,1033.9
2023-02-15T11:50:20.131Z,1033.9
2023-02-15T11:55:55.408Z,1033.7
2023-02-15T12:01:26.234Z,1033.5
2023-02-15T12:07:04.309Z,1033.5
2023-02-15T12:12:52.229Z,1033.3
2023-02-15T12:18:13.806Z,1033
2023-02-15T12:24:04.680Z,1033
2023-02-15T12:29:32.482Z,1032.7
2023-02-15T12:34:52.442Z,1032.6
2023-02-15T12:40:43.112Z,1032.5
2023-02-15T12:46:07.699Z,1032.2
2023-02-15T12:51:36.637Z,1032.1
2023-02-15T12:57:03.204Z,1031.6
2023-02-15T13:02:41.125Z,1031.2
2023-02-15T13:08:15.470Z,1031.1
2023-02-15T13:13:47.362Z,1030.7
2023-02-15T13:19:32.832Z,1030.7
2023-02-15T13:25:02.536Z,1030.7
2023-02-15T13:30:35.654Z,1030.5
2023-02-15T13:36:14.905Z,1030.4
2023-02-15T13:41:57.480Z,1030.3
2023-02-15T13:47:28.253Z,1030.2
2023-02-15T13:52:52.671Z,1030.3
2023-02-15T13:58:32.926Z,1030.1
2023-02-15T14:04:05.095Z,1030.2
2023-02-15T14:10:00.161Z,1030.2
2023-02-15T14:15:28.432Z,1030
2023-02-15T14:21:17.333Z,1030.1
2023-02-15T14:26:44.820Z,1030.1
2023-02-15T14:32:08.449Z,1030
2023-02-15T14:37:58.892Z,1030
2023-02-15T14:43:33.379Z,1029.8
2023-02-15T14:49:09.311Z,1029.9
2023-02-15T14:54:26.043Z,1029.9
2023-02-15T15:00:06.855Z,1029.8
2023-02-15T15:05:53.328Z,1029.9
2023-02-15T15:11:13.446Z,1029.8
2023-02-15T15:16:53.578Z,1029.8
2023-02-15T15:22:40.965Z,1029.7
2023-02-15T15:28:08.806Z,1029.8
2023-02-15T15:33:32.266Z,1029.9
2023-02-15T15:38:57.460Z,1029.8
2023-02-15T15:44:37.317Z,1029.8
2023-02-15T15:50:07.268Z,1029.9
2023-02-15T15:56:03.162Z,1030
2023-02-15T16:01:36.158Z,1030
2023-02-15T16:07:11.443Z,1030.1
2023-02-15T16:12:23.804Z,1030.4
2023-02-15T16:17:58.561Z,1030.5
2023-02-15T16:23:39.664Z,1030.8
2023-02-15T16:29:11.805Z,1030.9
2023-02-15T16:34:57.445Z,1030.9
2023-02-15T16:40:13.927Z,1031.2
2023-02-15T16:46:06.507Z,1031.3
2023-02-15T16:51:39.086Z,1031.4
2023-02-15T16:57:14.790Z,1031.4
2023-02-15T17:02:55.932Z,1031.2
2023-02-15T17:07:53.324Z,1031
2023-02-15T17:13:43.737Z,1031.4
2023-02-15T17:19:09.409Z,1031.8
2023-02-15T17:24:59.453Z,1031.8
2023-02-15T17:30:32.448Z,1032.2
2023-02-15T17:35:48.610Z,1032.4
2023-02-15T17:41:31.323Z,1032.4
2023-02-15T17:47:04.711Z,1032.5
2023-02-15T17:52:36.996Z,1032.5
2023-02-15T17:58:06.709Z,1032.6
2023-02-15T18:03:46.082Z,1032.6
2023-02-15T18:09:12.719Z,1032.5
2023-02-15T18:14:31.360Z,1032.5
2023-02-15T18:20:32.307Z,1032.5
2023-02-15T18:25:55.275Z,1032.6
2023-02-15T18:31:10.950Z,1032.5
2023-02-15T18:36:50.031Z,1032.7
2023-02-15T18:42:44.384Z,1032.9
2023-02-15T18:48:11.348Z,1033.1
2023-02-15T18:53:48.117Z,1033.1
2023-02-15T18:59:18.154Z,1033.1
2023-02-15T19:04:30.185Z,1033.1
2023-02-15T19:10:03.564Z,1033.1
2023-02-15T19:15:48.573Z,1033.1
2023-02-15T19:21:13.939Z,1033.1
2023-02-15T19:26:46.182Z,1033
2023-02-15T19:32:21.812Z,1033.1
2023-02-15T19:38:04.168Z,1033.2
2023-02-15T19:43:34.413Z,1033.3
2023-02-15T19:49:10.454Z,1033.2
2023-02-15T19:54:37.943Z,1033.2
2023-02-15T20:00:21.045Z,1033.2
2023-02-15T20:05:45.486Z,1033.3
2023-02-15T20:11:23.813Z,1033.4
2023-02-15T20:16:36.342Z,1033.3
2023-02-15T20:22:30.080Z,1033.3
2023-02-15T20:27:44.501Z,1033.5
2023-02-15T20:33:16.240Z,1033.5
2023-02-15T20:39:12.924Z,1033.6
2023-02-15T20:44:21.682Z,1033.6
2023-02-15T20:50:09.135Z,1033.7
2023-02-15T20:55:54.822Z,1033.6
2023-02-15T21:01:09.260Z,1033.6
2023-02-15T21:06:37.396Z,1033.6
2023-02-15T21:12:31.210Z,1033.7
2023-02-15T21:17:50.533Z,1033.6
2023-02-15T21:23:18.053Z,1033.5
2023-02-15T21:29:08.751Z,1033.7
2023-02-15T21:34:39.346Z,1033.7
2023-02-15T21:40:17.556Z,1033.8
2023-02-15T21:45:39.620Z,1033.8
2023-02-15T21:50:56.161Z,1033.9
2023-02-15T21:56:32.760Z,1033.7
2023-02-15T22:02:23.977Z,1033.7
2023-02-15T22:07:44.040Z,1033.7
2023-02-15T22:18:53.238Z,1033.8
2023-02-15T22:24:29.740Z,1033.8
2023-02-15T22:29:48.662Z,1033.8
2023-02-15T22:35:27.856Z,1034
2023-02-15T22:41:06.394Z,1033.9
2023-02-15T22:46:50.224Z,1034
2023-02-15T22:52:12.008Z,1034
2023-02-15T22:57:47.375Z,1034
2023-02-15T23:03:00.300Z,1034.3
2023-02-15T23:08:50.976Z,1034.2
2023-02-15T23:14:06.593Z,1034.1
2023-02-15T23:20:05.069Z,1034.1
2023-02-15T23:25:37.673Z,1034
2023-02-15T23:30:52.251Z,1034.1
2023-02-15T23:36:39.103Z,1034.1
2023-02-15T23:42:08.744Z,1034.1
2023-02-15T23:47:30.823Z,1034.2
2023-02-15T23:53:19.005Z,1034.3
2023-02-15T23:58:43.568Z,1034.4
